ECP weather

Northwest Florida Beaches International Airport
Panama City Beach, Florida, United States

Public forecast

Using degrees Fahrenheit for public forecast. Weather courtesy of forecast.io.

METAR (pilot weather report)

Retrieved 2018/06/22 01:53 UTC (1 hour ago):

KECP 220153Z 22005KT 10SM CLR 27/22 A2991 RMK AO2 SLP138 T02720222

TAF (pilot weather forecast)

Forecast is more than 12 hours old.

Retrieved 2018/06/21 00:22 UTC (1 day ago):

TAF KECP 212320Z 2200/2224 22013KT P6SM BKN030 FM220100 24007KT P6SM SCT030 FM221500 25010KT P6SM -TSRA SCT030 BKN040CB